createdAt,value
2023-02-28T00:01:16.480Z,96121.88
2023-02-28T00:06:18.841Z,96115.78
2023-02-28T00:11:21.205Z,96113.16
2023-02-28T00:16:23.916Z,96109.88
2023-02-28T00:21:33.462Z,96102.59
2023-02-28T00:26:36.612Z,96103.13
2023-02-28T00:31:40.332Z,96097.50
2023-02-28T00:36:46.432Z,96093.44
2023-02-28T00:41:49.826Z,96094.25
2023-02-28T00:46:54.975Z,96098.91
2023-02-28T00:51:58.182Z,96095.28
2023-02-28T00:57:00.560Z,96092.28
2023-02-28T01:02:03.736Z,96105.09
2023-02-28T01:07:06.141Z,96105.91
2023-02-28T01:12:08.781Z,96098.22
2023-02-28T01:17:11.824Z,96094.28
2023-02-28T01:22:18.605Z,96084.16
2023-02-28T01:27:22.524Z,96089.72
2023-02-28T01:32:25.482Z,96085.16
2023-02-28T01:37:28.409Z,96077.97
2023-02-28T01:42:31.197Z,96070.75
2023-02-28T01:47:34.053Z,96073.72
2023-02-28T01:52:37.072Z,96077.84
2023-02-28T01:57:39.691Z,96069.53
2023-02-28T02:02:42.545Z,96073.47
2023-02-28T02:07:45.994Z,96062.97
2023-02-28T02:12:48.692Z,96064.09
2023-02-28T02:17:53.507Z,96068.56
2023-02-28T02:22:56.452Z,96068.56
2023-02-28T02:27:59.399Z,96061.69
2023-02-28T02:33:05.107Z,96061.84
2023-02-28T02:38:07.671Z,96060.69
2023-02-28T02:43:10.158Z,96059.22
2023-02-28T02:48:15.488Z,96050.56
2023-02-28T02:53:20.267Z,96051.72
2023-02-28T02:58:22.992Z,96057.78
2023-02-28T03:03:29.842Z,96054.16
2023-02-28T03:08:33.343Z,96044.66
2023-02-28T03:13:35.943Z,96050.88
2023-02-28T03:18:48.473Z,96049.25
2023-02-28T03:23:52.117Z,96051.72
2023-02-28T03:28:57.934Z,96055.78
2023-02-28T03:34:00.762Z,96059.38
2023-02-28T03:39:04.696Z,96065.22
2023-02-28T03:44:07.572Z,96054.69
2023-02-28T03:49:10.174Z,96059.91
2023-02-28T03:54:13.805Z,96053.91
2023-02-28T03:59:16.916Z,96061.00
2023-02-28T04:04:19.256Z,96061.66
2023-02-28T04:09:22.357Z,96077.41
2023-02-28T04:14:24.757Z,96085.09
2023-02-28T04:19:27.947Z,96076.41
2023-02-28T04:24:31.089Z,96084.03
2023-02-28T04:29:35.199Z,96089.09
2023-02-28T04:34:37.544Z,96096.44
2023-02-28T04:39:39.854Z,96097.03
2023-02-28T04:44:42.620Z,96091.91
2023-02-28T04:49:44.994Z,96086.59
2023-02-28T04:54:52.331Z,96091.16
2023-02-28T04:59:55.456Z,96094.06
2023-02-28T05:04:59.131Z,96099.97
2023-02-28T05:10:03.140Z,96102.38
2023-02-28T05:15:15.959Z,96110.03
2023-02-28T05:20:20.325Z,96108.03
2023-02-28T05:25:23.671Z,96110.59
2023-02-28T05:30:28.164Z,96104.41
2023-02-28T05:35:34.873Z,96115.53
2023-02-28T05:40:37.854Z,96108.03
2023-02-28T05:45:41.150Z,96109.28
2023-02-28T05:50:45.800Z,96110.00
2023-02-28T05:55:48.633Z,96111.16
2023-02-28T06:00:51.763Z,96111.31
2023-02-28T06:05:54.186Z,96121.69
2023-02-28T06:11:03.081Z,96124.13
2023-02-28T06:16:06.633Z,96123.66
2023-02-28T06:21:10.507Z,96128.34
2023-02-28T06:26:13.746Z,96136.63
2023-02-28T06:31:16.570Z,96141.06
2023-02-28T06:36:19.464Z,96142.84
2023-02-28T06:41:22.782Z,96144.56
2023-02-28T06:46:25.468Z,96150.28
2023-02-28T06:51:28.307Z,96151.22
2023-02-28T06:56:31.394Z,96154.47
2023-02-28T07:01:34.296Z,96164.16
2023-02-28T07:06:36.943Z,96176.41
2023-02-28T07:11:39.396Z,96181.22
2023-02-28T07:16:42.735Z,96182.69
2023-02-28T07:21:45.228Z,96182.28
2023-02-28T07:26:47.490Z,96179.94
2023-02-28T07:31:51.588Z,96178.09
2023-02-28T07:36:54.442Z,96176.63
2023-02-28T07:41:57.762Z,96180.28
2023-02-28T07:47:00.163Z,96179.28
2023-02-28T07:52:02.492Z,96182.09
2023-02-28T07:57:05.218Z,96171.94
2023-02-28T08:02:07.658Z,96180.03
2023-02-28T08:07:14.055Z,96183.66
2023-02-28T08:12:16.521Z,96189.88
2023-02-28T08:17:19.100Z,96193.44
2023-02-28T08:22:21.589Z,96198.88
2023-02-28T08:27:23.927Z,96206.34
2023-02-28T08:32:30.064Z,96200.53
2023-02-28T08:37:32.959Z,96208.25
2023-02-28T08:42:35.681Z,96211.19
2023-02-28T08:47:38.777Z,96223.16
2023-02-28T08:52:41.433Z,96224.78
2023-02-28T08:57:44.524Z,96217.53
2023-02-28T09:02:46.916Z,96223.59
2023-02-28T09:07:49.464Z,96208.84
2023-02-28T09:12:52.001Z,96220.31
2023-02-28T09:17:55.183Z,96223.41
2023-02-28T09:22:57.980Z,96232.13
2023-02-28T09:28:00.939Z,96229.75
2023-02-28T09:33:03.508Z,96234.22
2023-02-28T09:38:08.501Z,96241.72
2023-02-28T09:43:10.975Z,96257.97
2023-02-28T09:48:14.370Z,96254.69
2023-02-28T09:53:16.693Z,96260.78
2023-02-28T09:58:19.328Z,96261.13
2023-02-28T10:03:21.628Z,96256.06
2023-02-28T10:08:26.288Z,96259.22
2023-02-28T10:13:28.990Z,96258.47
2023-02-28T10:18:32.195Z,96261.88
2023-02-28T10:23:34.650Z,96272.81
2023-02-28T10:28:37.313Z,96281.34
2023-02-28T10:33:39.663Z,96268.47
2023-02-28T10:38:42.036Z,96267.66
2023-02-28T10:43:45.886Z,96282.63
2023-02-28T10:48:50.103Z,96285.22
2023-02-28T10:54:01.163Z,96277.75
2023-02-28T10:59:06.308Z,96282.34
2023-02-28T11:04:08.844Z,96287.31
2023-02-28T11:09:14.272Z,96285.50
2023-02-28T11:14:16.994Z,96286.63
2023-02-28T11:19:20.094Z,96280.06
2023-02-28T11:24:25.023Z,96278.19
2023-02-28T11:29:27.516Z,96279.31
2023-02-28T11:34:29.882Z,96274.22
2023-02-28T11:39:32.581Z,96263.56
2023-02-28T11:44:35.753Z,96257.75
2023-02-28T11:49:39.695Z,96258.13
2023-02-28T11:54:42.500Z,96250.88
2023-02-28T11:59:54.823Z,96245.91
2023-02-28T12:05:09.228Z,96242.97
2023-02-28T12:10:12.996Z,96244.22
2023-02-28T12:15:15.324Z,96240.63
2023-02-28T12:20:18.447Z,96229.44
2023-02-28T12:25:21.624Z,96226.09
2023-02-28T12:30:24.820Z,96230.31
2023-02-28T12:35:28.227Z,96222.88
2023-02-28T12:40:31.473Z,96219.25
2023-02-28T12:45:34.501Z,96212.94
2023-02-28T12:50:37.655Z,96207.25
2023-02-28T12:55:40.365Z,96199.28
2023-02-28T13:00:42.990Z,96208.66
2023-02-28T13:05:46.069Z,96199.09
2023-02-28T13:10:54.813Z,96197.44
2023-02-28T13:15:57.984Z,96193.25
2023-02-28T13:21:00.299Z,96201.47
2023-02-28T13:26:03.957Z,96199.28
2023-02-28T13:31:07.117Z,96205.06
2023-02-28T13:36:10.273Z,96197.16
2023-02-28T13:41:12.713Z,96201.91
2023-02-28T13:46:15.152Z,96213.69
2023-02-28T13:51:17.509Z,96204.16
2023-02-28T13:56:20.201Z,96205.53
2023-02-28T14:01:23.342Z,96207.56
2023-02-28T14:06:35.767Z,96207.19
2023-02-28T14:11:38.132Z,96204.75
2023-02-28T14:16:41.100Z,96199.47
2023-02-28T14:21:43.478Z,96201.50
2023-02-28T14:26:47.082Z,96195.41
2023-02-28T14:31:51.522Z,96200.69
2023-02-28T14:36:53.980Z,96198.03
2023-02-28T14:41:56.703Z,96199.25
2023-02-28T14:46:59.827Z,96201.50
2023-02-28T14:52:02.188Z,96201.66
2023-02-28T14:57:12.275Z,96192.50
2023-02-28T15:02:15.402Z,96198.03
2023-02-28T15:07:18.480Z,96186.03
2023-02-28T15:12:20.863Z,96189.91
2023-02-28T15:17:23.211Z,96195.22
2023-02-28T15:22:26.370Z,96199.50
2023-02-28T15:27:28.808Z,96191.94
2023-02-28T15:32:31.231Z,96196.63
2023-02-28T15:37:34.567Z,96200.91
2023-02-28T15:42:47.317Z,96199.28
2023-02-28T15:47:49.957Z,96195.59
2023-02-28T15:52:52.346Z,96213.94
2023-02-28T15:57:55.233Z,96213.75
2023-02-28T16:02:57.754Z,96216.59
2023-02-28T16:08:00.324Z,96215.16
2023-02-28T16:13:02.680Z,96211.72
2023-02-28T16:18:05.091Z,96210.69
2023-02-28T16:23:09.140Z,96208.03
2023-02-28T16:28:11.790Z,96209.06
2023-02-28T16:33:14.734Z,96211.88
2023-02-28T16:38:17.572Z,96220.44
2023-02-28T16:43:22.178Z,96224.69
2023-02-28T16:48:24.899Z,96225.50
2023-02-28T16:53:28.724Z,96231.16
2023-02-28T16:58:31.808Z,96226.28
2023-02-28T17:03:34.464Z,96234.81
2023-02-28T17:08:37.595Z,96233.53
2023-02-28T17:13:39.978Z,96247.72
2023-02-28T17:18:42.395Z,96246.63
2023-02-28T17:23:45.627Z,96259.81
2023-02-28T17:28:48.540Z,96264.28
2023-02-28T17:33:51.095Z,96269.56
2023-02-28T17:38:56.300Z,96272.25
2023-02-28T17:44:00.166Z,96269.03
2023-02-28T17:49:04.413Z,96258.44
2023-02-28T17:54:08.136Z,96259.66
2023-02-28T17:59:11.330Z,96269.25
2023-02-28T18:04:13.929Z,96269.47
2023-02-28T18:09:16.392Z,96268.44
2023-02-28T18:14:18.681Z,96263.38
2023-02-28T18:19:21.226Z,96267.88
2023-02-28T18:24:24.973Z,96266.03
2023-02-28T18:29:28.408Z,96263.75
2023-02-28T18:34:31.324Z,96262.16
2023-02-28T18:39:33.732Z,96265.44
2023-02-28T18:44:36.022Z,96258.47
2023-02-28T18:49:38.327Z,96261.31
2023-02-28T18:54:40.672Z,96258.06
2023-02-28T18:59:43.118Z,96254.41
2023-02-28T19:04:46.192Z,96258.47
2023-02-28T19:09:48.482Z,96258.66
2023-02-28T19:14:51.724Z,96253.59
2023-02-28T19:19:54.144Z,96257.84
2023-02-28T19:24:56.939Z,96256.81
2023-02-28T19:29:59.754Z,96257.59
2023-02-28T19:35:02.774Z,96259.84
2023-02-28T19:40:05.449Z,96260.03
2023-02-28T19:45:09.927Z,96268.94
2023-02-28T19:50:13.183Z,96264.88
2023-02-28T19:55:15.628Z,96258.16
2023-02-28T20:00:18.950Z,96263.41
2023-02-28T20:05:31.332Z,96263.22
2023-02-28T20:10:33.665Z,96257.94
2023-02-28T20:15:41.643Z,96258.34
2023-02-28T20:20:45.178Z,96256.34
2023-02-28T20:25:54.125Z,96257.97
2023-02-28T20:30:56.806Z,96253.88
2023-02-28T20:35:59.924Z,96253.06
2023-02-28T20:41:02.450Z,96250.22
2023-02-28T20:46:04.898Z,96263.22
2023-02-28T20:51:07.592Z,96254.47
2023-02-28T20:56:09.995Z,96256.25
2023-02-28T21:01:15.881Z,96252.63
2023-02-28T21:06:18.866Z,96257.28
2023-02-28T21:11:22.021Z,96254.25
2023-02-28T21:16:24.404Z,96250.59
2023-02-28T21:21:27.612Z,96254.47
2023-02-28T21:26:30.566Z,96259.13
2023-02-28T21:31:35.177Z,96251.34
2023-02-28T21:36:37.520Z,96252.56
2023-02-28T21:41:39.864Z,96241.22
2023-02-28T21:46:42.214Z,96233.06
2023-02-28T21:51:45.436Z,96226.75
2023-02-28T21:56:47.776Z,96234.69
2023-02-28T22:01:50.854Z,96229.38
2023-02-28T22:06:54.069Z,96238.56
2023-02-28T22:11:57.198Z,96237.66
2023-02-28T22:17:00.731Z,96235.81
2023-02-28T22:22:03.271Z,96230.97
2023-02-28T22:27:06.777Z,96239.50
2023-02-28T22:32:11.109Z,96241.91
2023-02-28T22:37:14.505Z,96232.31
2023-02-28T22:42:17.100Z,96241.88
2023-02-28T22:47:19.535Z,96239.47
2023-02-28T22:52:22.228Z,96240.03
2023-02-28T22:57:25.516Z,96234.13
2023-02-28T23:02:28.284Z,96233.53
2023-02-28T23:07:31.844Z,96238.00
2023-02-28T23:12:34.540Z,96236.94
2023-02-28T23:17:37.044Z,96233.53
2023-02-28T23:22:40.262Z,96226.22
2023-02-28T23:27:42.646Z,96232.50
2023-02-28T23:32:45.669Z,96246.97
2023-02-28T23:37:48.050Z,96229.88
2023-02-28T23:42:51.084Z,96224.59
2023-02-28T23:47:55.439Z,96227.56
2023-02-28T23:52:58.040Z,96225.13
2023-02-28T23:58:01.363Z,96215.00
